This is the latest recevied weather packets stored in our database for station/object OH2MUI. If no packets are shown the sender has not sent any weather packets the latest 10 day(s).
| Time | Temp. | Humidity | Pressure | Rain* | Wind** | Luminosity | Snow |
|---|---|---|---|---|---|---|---|
| 1788553063 | 8.89° C | 99% | 996.3 hPa | 0.25 mm | - | - | - |
| 1788551995 | 9.44° C | 99% | 996.4 hPa | 0.25 mm | - | - | - |
| 1788551005 | 8.89° C | 99% | 996.6 hPa | 0.25 mm | - | - | - |
| 1788549885 | 9.44° C | 99% | 996.5 hPa | 0.25 mm | - | - | - |
| 1788548705 | 9.44° C | 99% | 996.7 hPa | 0.25 mm | - | - | - |
| 1788547590 | 10° C | 99% | 996.8 hPa | 0 mm | - | - | - |
| 1788546550 | 10.56° C | 99% | 997.1 hPa | 0 mm | - | - | - |
| 1788545350 | 10.56° C | 99% | 997.2 hPa | 0 mm | - | - | - |
| 1788544227 | 11.11° C | - | - | - | - | - | - |
| 1788544220 | 11.11° C | 99% | 997.4 hPa | 0.25 mm | - | - | - |
| 1788543240 | 11.11° C | 98% | 997.3 hPa | 0.25 mm | - | - | - |
| 1788542226 | 11.67° C | 95% | 997.3 hPa | 0.25 mm | - | - | - |
| 1788541224 | 12.22° C | 93% | 997.2 hPa | 0.25 mm | - | - | - |
| 1788540036 | 13.33° C | 89% | 997.1 hPa | 0.25 mm | - | - | - |
| 1788538846 | 14.44° C | 86% | 997.3 hPa | 0.25 mm | - | - | - |
| 1788537846 | 13.33° C | 92% | 997.2 hPa | 0.25 mm | - | - | - |
| 1788536745 | 13.89° C | 89% | 997.5 hPa | 0 mm | - | - | - |
| 1788535575 | 14.44° C | 85% | 997.4 hPa | 0 mm | - | - | - |
| 1788534518 | 14.44° C | 89% | 997.7 hPa | 0 mm | - | - | - |
| 1788533485 | 14.44° C | 90% | 997.6 hPa | 0.25 mm | - | - | - |
| 1788532415 | 14.44° C | 89% | 997.6 hPa | 0.25 mm | - | - | - |
| 1788531415 | 14.44° C | 93% | 997.6 hPa | 0.25 mm | - | - | - |
| 1788530287 | 13.89° C | 93% | 997.8 hPa | 0.25 mm | - | - | - |
| 1788529090 | 13.89° C | 88% | 998.2 hPa | 0.25 mm | - | - | - |
| 1788527900 | 13.89° C | 86% | 998.2 hPa | 0.25 mm | - | - | - |
* Rain latest hour (hover to see other rain measurements)
** Current wind speed in m/s (hover to see current wind gust speed)